Time;durP1;ratioP1;P1;durP2;ratioP2;P2;SDS_P1;SDS_P2;PMS_P1;PMS_P2;Temp;Humidity;BMP_temperature;BMP_pressure;BME280_temperature;BME280_humidity;BME280_pressure;Samples;Min_cycle;Max_cycle;Signal;HPM_P1;HPM_P2
2020/12/24 00:00:25;;;;;;;4.07;0.80;;;9.00;99.90;;;;;;5053522;28;20214;-75
2020/12/24 00:02:51;;;;;;;3.20;0.97;;;9.00;99.90;;;;;;5053818;28;20206;-76
2020/12/24 00:05:18;;;;;;;2.27;1.00;;;9.00;99.90;;;;;;5051847;28;20298;-76
2020/12/24 00:07:44;;;;;;;2.70;0.77;;;8.90;99.90;;;;;;5062944;28;20294;-76
2020/12/24 00:10:11;;;;;;;2.40;0.90;;;8.80;99.90;;;;;;5057370;28;20257;-76
2020/12/24 00:12:39;;;;;;;4.57;0.73;;;8.80;99.90;;;;;;5064697;28;20219;-75
2020/12/24 00:15:06;;;;;;;4.83;0.97;;;8.70;99.90;;;;;;5064264;28;20293;-76
2020/12/24 00:17:32;;;;;;;5.67;0.90;;;8.70;99.90;;;;;;5061860;28;20734;-75
2020/12/24 00:19:59;;;;;;;5.40;0.83;;;8.60;99.90;;;;;;5064064;28;20290;-75
2020/12/24 00:22:26;;;;;;;3.37;0.80;;;8.50;99.90;;;;;;5065554;28;20666;-76
2020/12/24 00:24:52;;;;;;;5.43;0.80;;;8.40;99.90;;;;;;5063170;28;20297;-77
2020/12/24 00:27:18;;;;;;;6.67;1.20;;;8.40;99.90;;;;;;5058075;28;20627;-74
2020/12/24 00:29:46;;;;;;;5.73;0.90;;;8.40;99.90;;;;;;5062348;28;20222;-74
2020/12/24 00:32:12;;;;;;;3.27;0.70;;;8.50;99.90;;;;;;5062891;28;20702;-77
2020/12/24 00:34:39;;;;;;;8.63;1.00;;;8.40;99.90;;;;;;5063899;28;20297;-78
2020/12/24 00:37:05;;;;;;;6.67;0.80;;;8.50;99.90;;;;;;5062117;28;20293;-77
2020/12/24 00:39:31;;;;;;;9.00;1.00;;;8.50;99.90;;;;;;5066555;28;20285;-76
2020/12/24 00:41:58;;;;;;;5.37;1.00;;;8.40;99.90;;;;;;5060947;28;20257;-77
2020/12/24 00:44:24;;;;;;;7.00;1.00;;;8.30;99.90;;;;;;5065168;28;21031;-74
2020/12/24 00:46:52;;;;;;;6.40;1.10;;;8.30;99.90;;;;;;5062474;28;20328;-77
2020/12/24 00:49:19;;;;;;;5.33;1.07;;;8.10;99.90;;;;;;5059994;28;20218;-76
2020/12/24 00:51:45;;;;;;;4.03;0.90;;;7.90;99.90;;;;;;5062063;28;20234;-77
2020/12/24 00:54:13;;;;;;;5.77;0.97;;;7.80;99.90;;;;;;5052355;28;20725;-77
2020/12/24 00:56:39;;;;;;;5.10;1.00;;;7.70;99.90;;;;;;5057962;28;20301;-77
2020/12/24 00:59:05;;;;;;;7.83;1.00;;;7.70;99.90;;;;;;5064850;28;20206;-74
2020/12/24 01:01:32;;;;;;;9.77;0.97;;;7.70;99.90;;;;;;5058871;28;20301;-77
2020/12/24 01:03:59;;;;;;;10.87;1.20;;;7.70;99.90;;;;;;5054361;28;20290;-76
2020/12/24 01:06:25;;;;;;;6.53;1.03;;;7.70;99.90;;;;;;5050684;28;20207;-76
2020/12/24 01:08:52;;;;;;;7.27;1.10;;;7.70;99.90;;;;;;5058836;28;20259;-77
2020/12/24 01:11:18;;;;;;;6.27;1.40;;;7.60;99.90;;;;;;5061382;28;20232;-77
2020/12/24 01:13:45;;;;;;;8.37;1.10;;;7.40;99.90;;;;;;5058358;28;20548;-77
2020/12/24 01:16:11;;;;;;;10.63;1.13;;;7.30;99.90;;;;;;5062042;28;20202;-77
2020/12/24 01:18:37;;;;;;;3.40;0.73;;;7.10;99.90;;;;;;5060758;28;20231;-77
2020/12/24 01:21:07;;;;;;;5.87;1.30;;;7.00;99.90;;;;;;5060325;28;20603;-77
2020/12/24 01:23:34;;;;;;;6.57;1.00;;;7.00;99.90;;;;;;5058137;28;20340;-77
2020/12/24 01:26:00;;;;;;;11.80;1.30;;;6.90;99.90;;;;;;5061608;28;20198;-77
2020/12/24 01:28:26;;;;;;;6.80;1.00;;;6.70;99.90;;;;;;5066056;28;20289;-77
2020/12/24 01:30:53;;;;;;;5.37;1.10;;;6.60;99.90;;;;;;5058756;28;20254;-77
2020/12/24 01:33:19;;;;;;;11.30;1.10;;;6.70;99.90;;;;;;5061375;28;20198;-77
2020/12/24 01:35:46;;;;;;;5.00;1.10;;;6.60;99.90;;;;;;5065045;28;20301;-77
2020/12/24 01:38:13;;;;;;;4.83;1.13;;;6.80;99.90;;;;;;5060652;28;20325;-77
2020/12/24 01:40:39;;;;;;;8.93;1.00;;;6.70;99.90;;;;;;5062179;28;20246;-77
2020/12/24 01:43:06;;;;;;;9.30;1.37;;;6.70;99.90;;;;;;5060264;28;20210;-77
2020/12/24 01:45:33;;;;;;;10.27;1.00;;;6.60;99.90;;;;;;5064530;28;20817;-76
2020/12/24 01:47:59;;;;;;;11.47;1.37;;;6.50;99.90;;;;;;5059547;28;20268;-77
2020/12/24 01:50:26;;;;;;;6.17;1.20;;;6.50;99.90;;;;;;5062289;28;20653;-77
2020/12/24 01:52:55;;;;;;;9.53;1.63;;;6.60;99.90;;;;;;5062288;28;20210;-77
2020/12/24 01:55:23;;;;;;;7.30;1.20;;;6.80;99.90;;;;;;5055614;28;20230;-76
2020/12/24 01:57:52;;;;;;;5.37;0.90;;;6.70;99.90;;;;;;5058554;28;20363;-76
2020/12/24 02:00:19;;;;;;;6.83;1.10;;;6.80;99.90;;;;;;5062222;28;20381;-76
2020/12/24 02:02:45;;;;;;;2.93;0.83;;;6.80;99.90;;;;;;5060160;28;20255;-77
2020/12/24 02:05:12;;;;;;;5.93;1.00;;;6.70;99.90;;;;;;5062944;28;20206;-76
2020/12/24 02:07:38;;;;;;;6.77;0.93;;;6.70;99.90;;;;;;5058412;28;20281;-76
2020/12/24 02:10:05;;;;;;;8.40;1.37;;;6.60;99.90;;;;;;5058521;28;20261;-76
2020/12/24 02:12:32;;;;;;;9.83;1.20;;;6.80;99.90;;;;;;5054773;28;21280;-77
2020/12/24 02:14:59;;;;;;;10.33;1.10;;;6.80;99.90;;;;;;5054239;28;20739;-78
2020/12/24 02:17:25;;;;;;;5.57;1.10;;;7.00;99.90;;;;;;5057567;28;20213;-77
2020/12/24 02:19:51;;;;;;;6.93;1.37;;;7.10;99.90;;;;;;5059410;28;20290;-77
2020/12/24 02:22:19;;;;;;;8.60;1.43;;;7.20;99.90;;;;;;5057681;28;20294;-76
2020/12/24 02:24:45;;;;;;;9.17;1.50;;;7.20;99.90;;;;;;5093624;22;20325;-77
2020/12/24 02:27:12;;;;;;;5.27;1.00;;;7.30;99.90;;;;;;5041887;28;20295;-76
2020/12/24 02:29:38;;;;;;;14.17;1.17;;;7.30;99.90;;;;;;5046148;28;20227;-77
2020/12/24 02:32:07;;;;;;;7.63;1.30;;;7.30;99.90;;;;;;5026596;28;20314;-75
2020/12/24 02:34:34;;;;;;;5.27;1.03;;;7.40;99.90;;;;;;5017607;28;21034;-76
2020/12/24 02:37:00;;;;;;;11.17;1.03;;;7.40;99.90;;;;;;5018335;28;20232;-74
2020/12/24 02:39:27;;;;;;;7.47;1.20;;;7.50;99.90;;;;;;5018268;28;20342;-75
2020/12/24 02:41:54;;;;;;;6.67;1.20;;;7.70;99.90;;;;;;5015399;28;20307;-78
2020/12/24 02:44:20;;;;;;;11.40;0.80;;;7.70;99.90;;;;;;5020389;28;20302;-75
2020/12/24 02:46:47;;;;;;;8.93;1.17;;;7.80;99.90;;;;;;5017910;28;20266;-77
2020/12/24 02:49:13;;;;;;;7.80;1.33;;;7.90;99.90;;;;;;5015401;28;20203;-75
2020/12/24 02:51:40;;;;;;;10.13;1.30;;;7.90;99.90;;;;;;5015351;28;20789;-79
2020/12/24 02:54:06;;;;;;;6.67;1.30;;;7.80;99.90;;;;;;5022735;28;20207;-79
2020/12/24 02:56:33;;;;;;;6.53;1.07;;;7.90;99.90;;;;;;5019599;28;20200;-76
2020/12/24 02:59:00;;;;;;;7.40;1.07;;;8.00;99.90;;;;;;5022601;28;20672;-78
2020/12/24 03:01:26;;;;;;;7.57;0.93;;;8.00;99.90;;;;;;5021080;28;20321;-76
2020/12/24 03:03:52;;;;;;;6.53;0.93;;;7.90;99.90;;;;;;5023956;28;20215;-75
2020/12/24 03:06:19;;;;;;;8.80;1.13;;;7.80;99.90;;;;;;5017830;28;20470;-76
2020/12/24 03:08:45;;;;;;;8.93;1.23;;;7.80;99.90;;;;;;5021937;28;20220;-73
2020/12/24 03:11:12;;;;;;;10.47;1.40;;;7.70;99.90;;;;;;5021560;28;20318;-75
2020/12/24 03:13:39;;;;;;;9.73;1.20;;;7.70;99.90;;;;;;5018630;28;20291;-75
2020/12/24 03:16:06;;;;;;;7.83;1.03;;;7.70;99.90;;;;;;5022374;28;20203;-76
2020/12/24 03:18:32;;;;;;;7.13;0.90;;;7.70;99.90;;;;;;5018631;28;20709;-75
2020/12/24 03:20:59;;;;;;;8.53;1.00;;;7.80;99.90;;;;;;5018429;28;20251;-76
2020/12/24 03:23:25;;;;;;;7.57;0.90;;;7.70;99.90;;;;;;5019360;28;20246;-76
2020/12/24 03:25:51;;;;;;;6.07;0.80;;;7.80;99.90;;;;;;5016273;28;20241;-76
2020/12/24 03:28:18;;;;;;;6.80;1.07;;;7.80;99.90;;;;;;5018010;28;20239;-75
2020/12/24 03:30:45;;;;;;;7.43;1.13;;;7.80;99.90;;;;;;5016870;28;20306;-76
2020/12/24 03:33:11;;;;;;;5.00;1.13;;;7.70;99.90;;;;;;5025208;28;20893;-76
2020/12/24 03:35:38;;;;;;;8.43;0.93;;;7.60;99.90;;;;;;5025801;28;21086;-76
2020/12/24 03:38:04;;;;;;;11.57;0.97;;;7.60;99.90;;;;;;5021298;28;20248;-75
2020/12/24 03:40:31;;;;;;;8.93;1.10;;;7.60;99.90;;;;;;5019826;28;20711;-75
2020/12/24 03:42:57;;;;;;;9.57;1.00;;;7.60;99.90;;;;;;5017990;28;20282;-75
2020/12/24 03:45:23;;;;;;;8.47;1.00;;;7.60;99.90;;;;;;5017868;28;20287;-76
2020/12/24 03:47:51;;;;;;;10.47;0.90;;;7.40;99.90;;;;;;5018575;28;20263;-75
2020/12/24 03:50:17;;;;;;;7.40;0.77;;;7.40;99.90;;;;;;5013057;28;20354;-76
2020/12/24 03:52:43;;;;;;;7.27;1.27;;;7.40;99.90;;;;;;5014601;28;20200;-76
2020/12/24 03:55:10;;;;;;;7.57;1.13;;;7.50;99.90;;;;;;5015740;28;20291;-76
2020/12/24 03:57:36;;;;;;;6.90;1.00;;;7.50;99.90;;;;;;5021080;28;20326;-75
2020/12/24 04:00:04;;;;;;;7.53;1.00;;;7.50;99.90;;;;;;5017797;28;20224;-76
2020/12/24 04:02:30;;;;;;;8.87;1.20;;;7.50;99.90;;;;;;5020608;28;20204;-75
2020/12/24 04:04:58;;;;;;;4.83;0.90;;;7.50;99.90;;;;;;5019318;28;20878;-76
2020/12/24 04:07:24;;;;;;;6.03;0.97;;;7.60;99.90;;;;;;5019128;28;20223;-76
2020/12/24 04:09:50;;;;;;;8.33;1.07;;;7.60;99.90;;;;;;5016753;28;20661;-75
2020/12/24 04:12:17;;;;;;;9.53;1.20;;;7.60;99.90;;;;;;5019767;28;20283;-76
2020/12/24 04:14:43;;;;;;;7.50;1.10;;;7.60;99.90;;;;;;5017599;28;20299;-76
2020/12/24 04:17:09;;;;;;;7.67;0.93;;;7.50;99.90;;;;;;5020306;28;20216;-74
2020/12/24 04:19:36;;;;;;;9.13;1.60;;;7.40;99.90;;;;;;5018329;28;20204;-75
2020/12/24 04:22:03;;;;;;;10.03;1.10;;;7.30;99.90;;;;;;5020433;28;20223;-75
2020/12/24 04:24:29;;;;;;;8.67;1.03;;;7.30;99.90;;;;;;5017998;28;20243;-75
2020/12/24 04:26:56;;;;;;;8.57;1.20;;;7.20;99.90;;;;;;5018531;28;20290;-75
2020/12/24 04:29:23;;;;;;;7.37;1.17;;;7.10;99.90;;;;;;5018181;28;20295;-75
2020/12/24 04:31:49;;;;;;;9.47;1.13;;;7.10;99.90;;;;;;5018654;28;20296;-76
2020/12/24 04:34:15;;;;;;;4.73;1.00;;;7.20;99.90;;;;;;5019293;28;20751;-76
2020/12/24 04:36:42;;;;;;;15.03;1.60;;;7.20;99.90;;;;;;5016402;28;20211;-75
2020/12/24 04:39:09;;;;;;;14.07;1.40;;;7.20;99.90;;;;;;5015741;28;20318;-75
2020/12/24 04:41:36;;;;;;;16.47;1.17;;;7.20;99.90;;;;;;5018997;28;20226;-75
2020/12/24 04:44:04;;;;;;;11.27;1.17;;;7.20;99.90;;;;;;5017510;28;20669;-75
2020/12/24 04:46:31;;;;;;;8.80;1.20;;;7.20;99.90;;;;;;5019992;28;20235;-77
2020/12/24 04:48:58;;;;;;;9.57;1.43;;;7.30;99.90;;;;;;5015553;28;20292;-75
2020/12/24 04:51:25;;;;;;;10.33;1.80;;;7.40;99.90;;;;;;5017379;28;20686;-75
2020/12/24 04:53:52;;;;;;;8.53;1.13;;;7.30;99.90;;;;;;5018776;28;20290;-75
2020/12/24 04:56:21;;;;;;;14.30;1.90;;;7.30;99.90;;;;;;5018337;28;20231;-76
2020/12/24 04:58:47;;;;;;;9.37;1.40;;;7.20;99.90;;;;;;5019403;28;20310;-76
2020/12/24 05:01:18;;;;;;;6.10;1.40;;;7.30;99.90;;;;;;5020523;28;20306;-76
2020/12/24 05:03:45;;;;;;;7.27;1.43;;;7.20;99.90;;;;;;5021005;28;20239;-76
2020/12/24 05:06:16;;;;;;;9.53;1.37;;;7.10;99.90;;;;;;5024688;28;20295;-76
2020/12/24 05:08:51;;;;;;;7.90;0.97;;;7.10;99.90;;;;;;5028729;28;20235;-76
2020/12/24 05:11:25;;;;;;;4.07;1.00;;;7.10;99.90;;;;;;5027178;28;20234;-76
2020/12/24 05:13:52;;;;;;;11.87;1.20;;;7.10;99.90;;;;;;5023177;28;20672;-77
2020/12/24 05:16:18;;;;;;;9.30;1.30;;;7.30;99.90;;;;;;5024928;28;20238;-78
2020/12/24 05:18:45;;;;;;;8.37;1.40;;;7.30;99.90;;;;;;5027080;28;20210;-78
2020/12/24 05:21:11;;;;;;;8.30;0.93;;;7.20;99.90;;;;;;5025179;28;20215;-75
2020/12/24 05:23:37;;;;;;;7.23;1.00;;;7.40;99.90;;;;;;5022588;28;20235;-75
2020/12/24 05:26:19;;;;;;;9.63;1.33;;;7.40;99.90;;;;;;5024703;28;20256;-75
2020/12/24 05:28:46;;;;;;;11.67;1.23;;;7.40;99.90;;;;;;5025278;28;20204;-75
2020/12/24 05:31:31;;;;;;;5.30;1.00;;;7.40;99.90;;;;;;5020496;28;20238;-76
2020/12/24 05:33:57;;;;;;;8.03;1.10;;;7.40;99.90;;;;;;5022528;28;21065;-78
2020/12/24 05:36:24;;;;;;;8.00;1.10;;;7.40;99.90;;;;;;5020618;28;20294;-77
2020/12/24 05:38:51;;;;;;;10.00;1.07;;;7.40;99.90;;;;;;5024946;28;20215;-78
2020/12/24 05:41:32;;;;;;;7.47;1.00;;;7.50;99.90;;;;;;5027666;28;20227;-78
2020/12/24 05:44:00;;;;;;;5.33;1.20;;;7.60;99.90;;;;;;5026688;28;20287;-78
2020/12/24 05:46:28;;;;;;;6.20;1.07;;;7.60;99.90;;;;;;5027158;28;20294;-75
2020/12/24 05:48:55;;;;;;;11.83;0.80;;;7.50;99.90;;;;;;5022808;28;20208;-75
2020/12/24 05:51:22;;;;;;;7.73;1.20;;;7.50;99.90;;;;;;5025443;28;20284;-75
2020/12/24 05:53:48;;;;;;;9.67;1.23;;;7.40;99.90;;;;;;5021539;28;20247;-77
2020/12/24 05:56:22;;;;;;;8.30;1.33;;;7.40;99.90;;;;;;5020353;28;20303;-78
2020/12/24 05:58:50;;;;;;;7.37;1.30;;;7.40;99.90;;;;;;5026175;28;20283;-75
2020/12/24 06:01:17;;;;;;;5.57;1.00;;;7.40;99.90;;;;;;5025394;28;20318;-77
2020/12/24 06:04:05;;;;;;;12.93;1.40;;;7.50;99.90;;;;;;5027070;28;20214;-78
2020/12/24 06:06:45;;;;;;;8.93;1.90;;;7.50;99.90;;;;;;5014585;28;20594;-75
2020/12/24 06:09:15;;;;;;;9.67;1.53;;;7.40;99.90;;;;;;5020714;28;20203;-75
2020/12/24 06:11:49;;;;;;;8.03;1.87;;;7.40;99.90;;;;;;5020739;28;20274;-77
2020/12/24 06:14:30;;;;;;;3.70;1.10;;;7.40;99.90;;;;;;5017377;28;20206;-76
2020/12/24 06:17:03;;;;;;;6.30;1.40;;;7.30;99.90;;;;;;5015717;28;20238;-75
2020/12/24 06:19:35;;;;;;;7.77;1.27;;;7.30;99.90;;;;;;5021264;28;20296;-77
2020/12/24 06:22:02;;;;;;;3.90;0.90;;;7.40;99.90;;;;;;5015291;28;20310;-77
2020/12/24 06:24:30;;;;;;;9.13;1.10;;;7.40;99.90;;;;;;5016144;28;20633;-77
2020/12/24 06:27:01;;;;;;;9.27;1.40;;;7.30;99.90;;;;;;5017311;28;20215;-77
2020/12/24 06:29:29;;;;;;;4.67;1.00;;;7.20;99.90;;;;;;5019081;28;20236;-77
2020/12/24 06:31:57;;;;;;;10.37;1.30;;;7.20;99.90;;;;;;5016538;28;20312;-77
2020/12/24 06:34:25;;;;;;;4.83;1.00;;;7.20;99.90;;;;;;5017411;28;20204;-77
2020/12/24 06:36:52;;;;;;;6.33;1.00;;;7.10;99.90;;;;;;5014567;28;20299;-75
2020/12/24 06:39:41;;;;;;;6.33;1.07;;;7.10;99.90;;;;;;5015691;28;20287;-74
2020/12/24 06:42:29;;;;;;;6.00;0.90;;;7.00;99.90;;;;;;5016091;28;20207;-77
2020/12/24 06:44:56;;;;;;;3.57;0.60;;;6.90;99.90;;;;;;5018532;28;20292;-77
2020/12/24 06:47:22;;;;;;;7.10;1.00;;;6.90;99.90;;;;;;5017564;28;20259;-77
2020/12/24 06:49:49;;;;;;;13.40;1.13;;;6.90;99.90;;;;;;5014826;28;20280;-77
2020/12/24 06:52:27;;;;;;;4.10;1.10;;;6.90;99.90;;;;;;5017190;28;20564;-75
2020/12/24 06:55:12;;;;;;;4.87;1.00;;;7.00;99.90;;;;;;5014562;28;20247;-77
2020/12/24 06:57:41;;;;;;;4.70;1.30;;;7.20;99.90;;;;;;5018032;28;20227;-77
2020/12/24 07:00:20;;;;;;;7.47;1.13;;;7.30;99.90;;;;;;5017229;28;20230;-79
2020/12/24 07:02:48;;;;;;;3.53;1.00;;;7.20;99.90;;;;;;5028301;28;20203;-79
2020/12/24 07:05:42;;;;;;;3.33;0.80;;;7.10;99.90;;;;;;5021692;28;20287;-77
2020/12/24 07:08:09;;;;;;;4.80;0.90;;;7.10;99.90;;;;;;5019857;28;20295;-79
2020/12/24 07:10:42;;;;;;;5.77;0.73;;;7.10;99.90;;;;;;5023019;28;20318;-79
2020/12/24 07:13:09;;;;;;;7.70;1.10;;;7.00;99.90;;;;;;5025049;28;20207;-79
2020/12/24 07:15:43;;;;;;;5.03;0.73;;;7.00;99.90;;;;;;5024327;28;20195;-79
2020/12/24 07:18:15;;;;;;;2.03;0.53;;;7.00;99.90;;;;;;5028453;28;20277;-77
2020/12/24 07:20:42;;;;;;;3.67;0.60;;;7.10;99.90;;;;;;5024933;28;20220;-77
2020/12/24 07:23:10;;;;;;;8.20;0.90;;;7.10;99.90;;;;;;5016211;28;20212;-77
2020/12/24 07:25:37;;;;;;;5.30;0.67;;;7.10;99.90;;;;;;5017393;28;20204;-77
2020/12/24 07:28:03;;;;;;;3.10;0.40;;;7.00;99.90;;;;;;5016767;28;20240;-77
2020/12/24 07:30:30;;;;;;;3.07;0.60;;;7.10;99.90;;;;;;5017859;28;20838;-77
2020/12/24 07:32:58;;;;;;;2.43;1.07;;;7.10;99.90;;;;;;5015703;28;20208;-77
2020/12/24 07:35:25;;;;;;;5.77;1.20;;;7.10;99.90;;;;;;5010356;28;20250;-77
2020/12/24 07:37:52;;;;;;;4.07;0.50;;;7.10;99.90;;;;;;5009476;28;20291;-77
2020/12/24 07:40:18;;;;;;;3.10;0.70;;;7.00;99.90;;;;;;5010122;28;20220;-77
2020/12/24 07:42:45;;;;;;;2.17;0.57;;;7.10;99.90;;;;;;5013366;28;20203;-77
2020/12/24 07:45:13;;;;;;;2.37;0.80;;;7.10;99.90;;;;;;5011123;28;20772;-76
2020/12/24 07:47:49;;;;;;;2.23;0.60;;;7.10;99.90;;;;;;5017299;28;20590;-76
2020/12/24 07:50:16;;;;;;;5.47;1.07;;;7.00;99.90;;;;;;5014997;28;20235;-77
2020/12/24 07:52:46;;;;;;;2.83;0.77;;;7.00;99.90;;;;;;5018760;28;20204;-75
2020/12/24 07:55:12;;;;;;;2.23;0.47;;;7.00;99.90;;;;;;5013702;28;20561;-75
2020/12/24 07:57:39;;;;;;;4.17;1.10;;;7.00;99.90;;;;;;5018842;28;20299;-75
2020/12/24 08:00:06;;;;;;;6.03;1.30;;;7.00;99.90;;;;;;5014536;28;20310;-76
2020/12/24 08:02:33;;;;;;;2.63;0.70;;;6.90;99.90;;;;;;5022459;28;20214;-76
2020/12/24 08:04:59;;;;;;;5.30;0.93;;;6.90;99.90;;;;;;5018434;28;20196;-75
2020/12/24 08:07:27;;;;;;;2.97;1.07;;;6.90;99.90;;;;;;5017207;28;20204;-75
2020/12/24 08:09:53;;;;;;;5.70;0.80;;;6.90;99.90;;;;;;5015504;28;20211;-75
2020/12/24 08:12:21;;;;;;;2.47;0.60;;;6.90;99.90;;;;;;5008098;28;20199;-76
2020/12/24 08:14:48;;;;;;;3.33;0.53;;;6.90;99.90;;;;;;5008935;28;20204;-75
2020/12/24 08:17:22;;;;;;;4.20;0.80;;;6.90;99.90;;;;;;5014620;28;20209;-76
2020/12/24 08:19:54;;;;;;;3.37;0.70;;;7.00;99.90;;;;;;5010412;28;20609;-76
2020/12/24 08:22:25;;;;;;;3.10;0.70;;;7.00;99.90;;;;;;5012850;28;20204;-75
2020/12/24 08:24:54;;;;;;;5.80;0.50;;;7.00;99.90;;;;;;5004721;28;20240;-74
2020/12/24 08:27:21;;;;;;;3.13;0.70;;;7.00;99.90;;;;;;5008030;28;20208;-76
2020/12/24 08:29:49;;;;;;;2.87;0.70;;;7.00;99.90;;;;;;5002876;28;20246;-75
2020/12/24 08:32:16;;;;;;;1.87;0.67;;;7.00;99.90;;;;;;5002791;28;20227;-75
2020/12/24 08:34:42;;;;;;;2.53;0.80;;;7.00;99.90;;;;;;5006074;28;20210;-75
2020/12/24 08:37:09;;;;;;;5.03;0.90;;;7.00;99.90;;;;;;5009273;28;20204;-75
2020/12/24 08:39:35;;;;;;;4.43;0.83;;;7.00;99.90;;;;;;5009296;28;20203;-75
2020/12/24 08:42:03;;;;;;;5.33;1.00;;;7.00;99.90;;;;;;5008661;28;20212;-76
2020/12/24 08:44:30;;;;;;;5.90;1.17;;;7.00;99.90;;;;;;5007746;28;20654;-77
2020/12/24 08:47:04;;;;;;;4.90;0.80;;;7.00;99.90;;;;;;5010576;28;20195;-75
2020/12/24 08:49:32;;;;;;;3.83;1.00;;;7.20;99.90;;;;;;5005891;28;21956;-74
2020/12/24 08:52:12;;;;;;;2.70;1.10;;;7.20;99.90;;;;;;5001642;28;20592;-74
2020/12/24 08:54:39;;;;;;;3.90;1.40;;;7.20;99.90;;;;;;5002332;28;20218;-74
2020/12/24 08:57:11;;;;;;;2.20;0.80;;;7.30;99.90;;;;;;5001034;28;21053;-75
2020/12/24 08:59:37;;;;;;;2.83;0.73;;;7.30;99.90;;;;;;5007747;28;20204;-75
2020/12/24 09:02:04;;;;;;;2.13;0.73;;;7.40;99.90;;;;;;5008448;28;20222;-75
2020/12/24 09:04:30;;;;;;;4.40;0.60;;;7.50;99.90;;;;;;5005226;28;20218;-74
2020/12/24 09:06:57;;;;;;;2.90;0.70;;;7.60;99.90;;;;;;5008114;28;20231;-75
2020/12/24 09:09:24;;;;;;;4.20;0.70;;;7.70;99.90;;;;;;5007555;28;20212;-75
2020/12/24 09:11:52;;;;;;;2.17;0.90;;;7.90;99.90;;;;;;5007530;28;20235;-74
2020/12/24 09:14:21;;;;;;;1.60;0.50;;;8.00;99.90;;;;;;5006515;28;20635;-75
2020/12/24 09:16:55;;;;;;;0.90;0.47;;;8.30;99.90;;;;;;5014244;28;20566;-75
2020/12/24 09:19:22;;;;;;;2.83;0.70;;;8.50;99.90;;;;;;5004395;28;20342;-75
2020/12/24 09:21:53;;;;;;;1.43;0.53;;;8.70;99.90;;;;;;5014030;28;20338;-74
2020/12/24 09:24:20;;;;;;;1.43;1.03;;;8.80;99.90;;;;;;5012344;28;20333;-75
2020/12/24 09:26:47;;;;;;;3.20;0.63;;;8.70;99.90;;;;;;5008758;28;20209;-75
2020/12/24 09:29:15;;;;;;;2.00;0.60;;;8.70;99.90;;;;;;5011268;28;20208;-75
2020/12/24 09:31:51;;;;;;;1.20;0.70;;;8.50;99.90;;;;;;5010073;28;20240;-75
2020/12/24 09:34:18;;;;;;;2.00;0.60;;;8.60;99.90;;;;;;5009475;28;20665;-75
2020/12/24 09:36:46;;;;;;;1.97;0.60;;;8.80;99.90;;;;;;5010051;28;20208;-75
2020/12/24 09:39:13;;;;;;;1.67;0.47;;;8.80;99.90;;;;;;5006223;28;20685;-75
2020/12/24 09:41:41;;;;;;;1.80;0.50;;;8.70;99.90;;;;;;5011804;28;20227;-73
2020/12/24 09:44:08;;;;;;;0.40;0.40;;;8.70;99.90;;;;;;5007815;28;21169;-73
2020/12/24 09:46:34;;;;;;;1.57;0.50;;;8.50;99.90;;;;;;5010549;28;20210;-74
2020/12/24 09:49:02;;;;;;;1.37;0.50;;;8.40;99.90;;;;;;5016089;28;20210;-77
2020/12/24 09:51:32;;;;;;;0.47;0.37;;;8.30;99.90;;;;;;5008924;28;20227;-76
2020/12/24 09:54:01;;;;;;;1.33;0.57;;;8.30;99.90;;;;;;5010550;28;20208;-77
2020/12/24 09:56:27;;;;;;;1.23;0.50;;;8.40;99.90;;;;;;5007680;28;20214;-73
2020/12/24 09:58:54;;;;;;;1.33;0.73;;;8.40;99.90;;;;;;5010599;28;20208;-75
2020/12/24 10:01:20;;;;;;;2.53;0.80;;;8.50;99.90;;;;;;5016189;28;20311;-76
2020/12/24 10:03:47;;;;;;;1.50;0.50;;;8.70;99.90;;;;;;5012296;28;20231;-75
2020/12/24 10:06:15;;;;;;;4.60;0.70;;;9.00;99.90;;;;;;5009233;28;20205;-75
2020/12/24 10:08:41;;;;;;;3.37;0.80;;;9.20;99.90;;;;;;5014649;28;21907;-74
2020/12/24 10:11:11;;;;;;;1.23;0.43;;;9.40;99.90;;;;;;5006555;28;20718;-74
2020/12/24 10:13:37;;;;;;;1.17;0.50;;;9.40;99.90;;;;;;5006456;28;20207;-76
2020/12/24 10:16:04;;;;;;;1.20;0.60;;;9.60;99.90;;;;;;5005400;28;20298;-74
2020/12/24 10:18:30;;;;;;;2.27;0.50;;;9.50;99.90;;;;;;5007626;28;20199;-77
2020/12/24 10:20:57;;;;;;;1.63;0.40;;;9.40;99.90;;;;;;5012313;28;20247;-75
2020/12/24 10:23:24;;;;;;;1.10;0.53;;;9.30;99.90;;;;;;5014877;28;20196;-77
2020/12/24 10:25:50;;;;;;;1.53;0.60;;;9.10;99.90;;;;;;5013964;28;20207;-74
2020/12/24 10:28:17;;;;;;;3.40;0.60;;;9.00;99.90;;;;;;5014024;28;20669;-76
2020/12/24 10:30:43;;;;;;;1.47;0.50;;;8.90;99.90;;;;;;5013191;28;20222;-74
2020/12/24 10:33:10;;;;;;;1.70;0.57;;;8.70;99.90;;;;;;5014233;28;20231;-75
2020/12/24 10:35:37;;;;;;;1.13;0.70;;;8.80;99.90;;;;;;5014403;28;20862;-77
2020/12/24 10:38:03;;;;;;;1.60;0.53;;;8.90;99.90;;;;;;5019029;28;20269;-76
2020/12/24 10:40:30;;;;;;;2.07;0.60;;;8.90;99.90;;;;;;5019659;28;20306;-75
2020/12/24 10:42:57;;;;;;;1.93;0.63;;;8.90;99.90;;;;;;5021347;28;20253;-76
2020/12/24 10:45:25;;;;;;;2.07;0.77;;;8.80;99.90;;;;;;5017768;28;20330;-75
2020/12/24 10:47:52;;;;;;;3.67;0.60;;;8.60;99.90;;;;;;5022734;28;20277;-76
2020/12/24 10:50:18;;;;;;;1.67;0.60;;;8.70;99.90;;;;;;5018759;28;20219;-75
2020/12/24 10:52:46;;;;;;;3.47;0.60;;;8.70;99.90;;;;;;5013441;28;20262;-76
2020/12/24 10:55:12;;;;;;;1.53;0.63;;;8.70;99.90;;;;;;5014995;28;20617;-76
2020/12/24 10:57:40;;;;;;;2.57;0.90;;;8.80;99.90;;;;;;5015796;28;20294;-76
2020/12/24 11:00:07;;;;;;;1.90;0.80;;;8.70;99.90;;;;;;5011662;28;20786;-76
2020/12/24 11:02:34;;;;;;;2.20;1.10;;;8.70;99.90;;;;;;5008460;28;20674;-74
2020/12/24 11:05:00;;;;;;;1.33;0.80;;;8.60;99.90;;;;;;5016011;28;20199;-77
2020/12/24 11:07:27;;;;;;;5.37;0.93;;;8.60;99.90;;;;;;5016046;28;20299;-76
2020/12/24 11:09:53;;;;;;;2.40;0.60;;;8.60;99.90;;;;;;5012318;28;20286;-75
2020/12/24 11:12:19;;;;;;;1.87;0.90;;;8.60;99.90;;;;;;5008672;28;20513;-76
2020/12/24 11:14:46;;;;;;;2.13;0.90;;;8.50;99.90;;;;;;5007920;28;20743;-76
2020/12/24 11:17:13;;;;;;;2.10;0.80;;;8.40;99.90;;;;;;4999854;28;20354;-76
2020/12/24 11:19:40;;;;;;;1.27;0.87;;;8.30;99.90;;;;;;5003485;28;20633;-75
2020/12/24 11:22:06;;;;;;;0.77;0.70;;;8.40;99.90;;;;;;5014799;28;20224;-77
2020/12/24 11:24:32;;;;;;;1.53;0.80;;;8.40;99.90;;;;;;5023620;28;20328;-77
2020/12/24 11:26:59;;;;;;;2.33;0.73;;;8.40;99.90;;;;;;5018169;28;20271;-77
2020/12/24 11:29:25;;;;;;;2.20;0.97;;;8.40;99.90;;;;;;5019018;28;20283;-78
2020/12/24 11:31:57;;;;;;;4.30;0.87;;;8.30;99.90;;;;;;5011355;28;20242;-77
2020/12/24 11:34:26;;;;;;;3.90;1.10;;;8.20;99.90;;;;;;5012486;28;20211;-77
2020/12/24 11:36:52;;;;;;;0.50;0.50;;;8.10;99.90;;;;;;5013516;28;20206;-78
2020/12/24 11:39:18;;;;;;;0.47;0.40;;;7.60;99.90;;;;;;5017863;28;20227;-76
2020/12/24 11:41:45;;;;;;;0.80;0.40;;;7.30;99.90;;;;;;5015715;28;20357;-78
2020/12/24 11:44:12;;;;;;;0.60;0.40;;;7.20;99.90;;;;;;5020502;28;20347;-77
2020/12/24 11:46:38;;;;;;;0.70;0.47;;;7.10;99.90;;;;;;5013161;28;20241;-78
2020/12/24 11:49:06;;;;;;;1.13;0.50;;;7.00;99.90;;;;;;5016055;28;20200;-77
2020/12/24 11:51:32;;;;;;;0.87;0.60;;;7.00;99.90;;;;;;5019385;28;20238;-77
2020/12/24 11:53:58;;;;;;;1.17;0.30;;;6.90;99.90;;;;;;5019232;28;20207;-77
2020/12/24 11:56:25;;;;;;;0.30;0.20;;;6.90;99.90;;;;;;5019878;28;20634;-76
2020/12/24 11:58:52;;;;;;;0.40;0.30;;;6.70;99.90;;;;;;5016584;28;20291;-77
2020/12/24 12:01:20;;;;;;;0.87;0.50;;;6.60;99.90;;;;;;5016911;28;20243;-77
2020/12/24 12:03:47;;;;;;;0.90;0.53;;;6.60;99.90;;;;;;5017144;28;20254;-78
2020/12/24 12:06:15;;;;;;;1.73;1.03;;;6.40;99.90;;;;;;5018432;28;20219;-77
2020/12/24 12:08:42;;;;;;;1.13;0.50;;;6.30;99.90;;;;;;5015481;28;20208;-75
2020/12/24 12:11:08;;;;;;;1.90;0.20;;;6.30;99.90;;;;;;5009003;28;20227;-75
2020/12/24 12:13:37;;;;;;;1.57;0.40;;;6.20;99.90;;;;;;5014667;28;20212;-76
2020/12/24 12:16:05;;;;;;;1.20;0.60;;;6.20;99.90;;;;;;4928566;28;20278;-75
2020/12/24 12:18:32;;;;;;;1.50;0.73;;;6.20;99.90;;;;;;5006551;28;20208;-75
2020/12/24 12:20:59;;;;;;;1.17;0.73;;;6.30;99.90;;;;;;5008633;28;20948;-75
2020/12/24 12:23:26;;;;;;;2.03;0.70;;;6.30;99.90;;;;;;5003363;28;20232;-76
2020/12/24 12:25:53;;;;;;;1.87;0.70;;;6.40;99.90;;;;;;5004516;28;20210;-75
2020/12/24 12:28:19;;;;;;;0.60;0.40;;;6.50;99.90;;;;;;5007560;28;20219;-75
2020/12/24 12:30:45;;;;;;;0.30;0.20;;;6.50;99.90;;;;;;5013987;28;20697;-75
2020/12/24 12:33:12;;;;;;;1.73;1.07;;;6.60;99.90;;;;;;5012048;28;20302;-76
2020/12/24 12:35:38;;;;;;;11.40;5.37;;;6.70;99.90;;;;;;5011889;28;20199;-76
2020/12/24 12:38:05;;;;;;;8.30;2.83;;;6.70;99.90;;;;;;5012698;28;20334;-76
2020/12/24 12:40:32;;;;;;;2.27;1.20;;;6.70;99.90;;;;;;5012607;28;20891;-75
2020/12/24 12:42:59;;;;;;;2.53;0.87;;;6.70;99.90;;;;;;5013158;28;20299;-76
2020/12/24 12:45:25;;;;;;;0.87;0.60;;;6.70;99.90;;;;;;5005668;28;20207;-75
2020/12/24 12:47:52;;;;;;;0.60;0.50;;;6.60;99.90;;;;;;5014042;28;20844;-76
2020/12/24 12:50:18;;;;;;;0.67;0.40;;;6.50;99.90;;;;;;5019120;28;20302;-76
2020/12/24 12:52:45;;;;;;;0.60;0.30;;;6.50;99.90;;;;;;5019955;28;20813;-76
2020/12/24 12:55:11;;;;;;;3.70;0.87;;;6.50;99.90;;;;;;5018297;28;20326;-76
2020/12/24 12:57:39;;;;;;;5.70;1.83;;;6.50;99.90;;;;;;5015594;28;20330;-76